sensor_id;sensor_type;location;lat;lon;timestamp;P1;durP1;ratioP1;P2;durP2;ratioP2
31716;SDS011;18301;51.076;17.046;2022-07-06T00:02:48;20.23;;;12.63;;
31716;SDS011;18301;51.076;17.046;2022-07-06T00:07:50;14.57;;;12.50;;
31716;SDS011;18301;51.076;17.046;2022-07-06T00:12:51;15.07;;;11.48;;
31716;SDS011;18301;51.076;17.046;2022-07-06T00:17:53;15.52;;;12.38;;
31716;SDS011;18301;51.076;17.046;2022-07-06T00:22:54;16.80;;;12.40;;
31716;SDS011;18301;51.076;17.046;2022-07-06T00:27:56;12.68;;;9.18;;
31716;SDS011;18301;51.076;17.046;2022-07-06T00:32:57;13.02;;;9.40;;
31716;SDS011;18301;51.076;17.046;2022-07-06T00:37:59;10.77;;;9.65;;
31716;SDS011;18301;51.076;17.046;2022-07-06T00:43:01;11.05;;;8.55;;
31716;SDS011;18301;51.076;17.046;2022-07-06T00:48:02;12.95;;;8.68;;
31716;SDS011;18301;51.076;17.046;2022-07-06T00:53:05;11.38;;;9.43;;
31716;SDS011;18301;51.076;17.046;2022-07-06T00:58:08;9.93;;;8.88;;
31716;SDS011;18301;51.076;17.046;2022-07-06T01:03:10;11.35;;;8.80;;
31716;SDS011;18301;51.076;17.046;2022-07-06T01:08:11;11.75;;;8.00;;
31716;SDS011;18301;51.076;17.046;2022-07-06T01:13:13;9.73;;;8.70;;
31716;SDS011;18301;51.076;17.046;2022-07-06T01:18:14;12.13;;;8.45;;
31716;SDS011;18301;51.076;17.046;2022-07-06T01:23:16;11.95;;;9.02;;
31716;SDS011;18301;51.076;17.046;2022-07-06T01:28:18;12.75;;;9.73;;
31716;SDS011;18301;51.076;17.046;2022-07-06T01:33:20;12.35;;;9.23;;
31716;SDS011;18301;51.076;17.046;2022-07-06T01:38:21;11.10;;;9.75;;
31716;SDS011;18301;51.076;17.046;2022-07-06T01:43:23;12.25;;;9.57;;
31716;SDS011;18301;51.076;17.046;2022-07-06T01:48:25;13.13;;;10.07;;
31716;SDS011;18301;51.076;17.046;2022-07-06T01:53:26;11.88;;;9.80;;
31716;SDS011;18301;51.076;17.046;2022-07-06T01:58:28;11.35;;;9.52;;
31716;SDS011;18301;51.076;17.046;2022-07-06T02:03:30;12.20;;;9.50;;
31716;SDS011;18301;51.076;17.046;2022-07-06T02:08:32;10.98;;;9.82;;
31716;SDS011;18301;51.076;17.046;2022-07-06T02:13:36;14.95;;;10.52;;
31716;SDS011;18301;51.076;17.046;2022-07-06T02:18:38;14.38;;;9.98;;
31716;SDS011;18301;51.076;17.046;2022-07-06T02:23:39;13.73;;;9.77;;
31716;SDS011;18301;51.076;17.046;2022-07-06T02:28:41;11.40;;;10.20;;
31716;SDS011;18301;51.076;17.046;2022-07-06T02:33:43;15.65;;;9.70;;
31716;SDS011;18301;51.076;17.046;2022-07-06T02:38:44;14.00;;;9.70;;
31716;SDS011;18301;51.076;17.046;2022-07-06T02:43:46;12.50;;;10.10;;
31716;SDS011;18301;51.076;17.046;2022-07-06T02:48:47;12.18;;;9.80;;
31716;SDS011;18301;51.076;17.046;2022-07-06T02:53:49;13.63;;;9.80;;
31716;SDS011;18301;51.076;17.046;2022-07-06T02:58:50;11.15;;;9.57;;
31716;SDS011;18301;51.076;17.046;2022-07-06T03:03:52;11.40;;;9.55;;
31716;SDS011;18301;51.076;17.046;2022-07-06T03:08:53;15.75;;;10.18;;
31716;SDS011;18301;51.076;17.046;2022-07-06T03:13:55;12.75;;;10.18;;
31716;SDS011;18301;51.076;17.046;2022-07-06T03:18:56;11.75;;;10.32;;
31716;SDS011;18301;51.076;17.046;2022-07-06T03:23:58;12.45;;;9.45;;
31716;SDS011;18301;51.076;17.046;2022-07-06T03:29:00;14.13;;;9.98;;
31716;SDS011;18301;51.076;17.046;2022-07-06T03:34:01;15.80;;;10.50;;
31716;SDS011;18301;51.076;17.046;2022-07-06T03:39:03;14.25;;;10.85;;
31716;SDS011;18301;51.076;17.046;2022-07-06T03:44:04;14.15;;;10.40;;
31716;SDS011;18301;51.076;17.046;2022-07-06T03:49:06;13.00;;;10.00;;
31716;SDS011;18301;51.076;17.046;2022-07-06T03:54:07;12.48;;;8.90;;
31716;SDS011;18301;51.076;17.046;2022-07-06T03:59:09;16.90;;;8.30;;
31716;SDS011;18301;51.076;17.046;2022-07-06T04:04:10;10.82;;;7.28;;
31716;SDS011;18301;51.076;17.046;2022-07-06T04:09:12;12.98;;;7.65;;
31716;SDS011;18301;51.076;17.046;2022-07-06T04:14:13;11.68;;;6.78;;
31716;SDS011;18301;51.076;17.046;2022-07-06T04:19:15;10.38;;;7.30;;
31716;SDS011;18301;51.076;17.046;2022-07-06T04:24:16;13.50;;;5.95;;
31716;SDS011;18301;51.076;17.046;2022-07-06T04:29:18;12.48;;;6.20;;
31716;SDS011;18301;51.076;17.046;2022-07-06T04:34:20;12.65;;;5.57;;
31716;SDS011;18301;51.076;17.046;2022-07-06T04:39:21;6.85;;;4.78;;
31716;SDS011;18301;51.076;17.046;2022-07-06T04:44:23;6.38;;;4.75;;
31716;SDS011;18301;51.076;17.046;2022-07-06T04:49:24;9.60;;;4.38;;
31716;SDS011;18301;51.076;17.046;2022-07-06T04:54:26;6.43;;;3.95;;
31716;SDS011;18301;51.076;17.046;2022-07-06T04:59:27;5.85;;;3.47;;
31716;SDS011;18301;51.076;17.046;2022-07-06T05:04:29;4.40;;;3.42;;
31716;SDS011;18301;51.076;17.046;2022-07-06T05:09:30;6.35;;;3.45;;
31716;SDS011;18301;51.076;17.046;2022-07-06T05:14:32;4.90;;;3.10;;
31716;SDS011;18301;51.076;17.046;2022-07-06T05:19:33;4.30;;;3.28;;
31716;SDS011;18301;51.076;17.046;2022-07-06T05:24:35;3.60;;;2.92;;
31716;SDS011;18301;51.076;17.046;2022-07-06T05:29:36;5.60;;;2.97;;
31716;SDS011;18301;51.076;17.046;2022-07-06T05:34:38;6.53;;;3.70;;
31716;SDS011;18301;51.076;17.046;2022-07-06T05:39:39;6.40;;;3.60;;
31716;SDS011;18301;51.076;17.046;2022-07-06T05:44:44;6.63;;;3.95;;
31716;SDS011;18301;51.076;17.046;2022-07-06T05:49:46;6.78;;;4.15;;
31716;SDS011;18301;51.076;17.046;2022-07-06T05:55:06;6.38;;;3.90;;
31716;SDS011;18301;51.076;17.046;2022-07-06T06:00:08;6.63;;;4.28;;
31716;SDS011;18301;51.076;17.046;2022-07-06T06:05:10;6.72;;;4.40;;
31716;SDS011;18301;51.076;17.046;2022-07-06T06:10:12;5.32;;;3.90;;
31716;SDS011;18301;51.076;17.046;2022-07-06T06:15:14;6.95;;;3.83;;
31716;SDS011;18301;51.076;17.046;2022-07-06T06:20:16;5.25;;;4.00;;
31716;SDS011;18301;51.076;17.046;2022-07-06T06:25:18;4.38;;;3.97;;
31716;SDS011;18301;51.076;17.046;2022-07-06T06:30:22;4.32;;;3.50;;
31716;SDS011;18301;51.076;17.046;2022-07-06T06:35:23;4.97;;;4.00;;
31716;SDS011;18301;51.076;17.046;2022-07-06T06:40:25;5.00;;;4.20;;
31716;SDS011;18301;51.076;17.046;2022-07-06T06:45:27;7.30;;;4.35;;
31716;SDS011;18301;51.076;17.046;2022-07-06T06:50:28;7.00;;;4.65;;
31716;SDS011;18301;51.076;17.046;2022-07-06T06:55:30;6.00;;;4.70;;
31716;SDS011;18301;51.076;17.046;2022-07-06T07:00:31;6.30;;;4.68;;
31716;SDS011;18301;51.076;17.046;2022-07-06T07:05:33;7.93;;;4.78;;
31716;SDS011;18301;51.076;17.046;2022-07-06T07:10:35;5.85;;;4.70;;
31716;SDS011;18301;51.076;17.046;2022-07-06T07:15:36;10.35;;;6.95;;
31716;SDS011;18301;51.076;17.046;2022-07-06T07:20:38;6.95;;;5.45;;
31716;SDS011;18301;51.076;17.046;2022-07-06T07:25:39;6.68;;;4.93;;
31716;SDS011;18301;51.076;17.046;2022-07-06T07:30:41;6.70;;;5.22;;
31716;SDS011;18301;51.076;17.046;2022-07-06T07:35:42;5.68;;;4.53;;
31716;SDS011;18301;51.076;17.046;2022-07-06T07:40:44;5.40;;;4.90;;
31716;SDS011;18301;51.076;17.046;2022-07-06T07:45:46;5.03;;;4.53;;
31716;SDS011;18301;51.076;17.046;2022-07-06T07:50:49;7.05;;;4.35;;
31716;SDS011;18301;51.076;17.046;2022-07-06T07:55:50;6.32;;;4.28;;
31716;SDS011;18301;51.076;17.046;2022-07-06T08:00:52;5.15;;;3.70;;
31716;SDS011;18301;51.076;17.046;2022-07-06T08:05:53;5.75;;;3.70;;
31716;SDS011;18301;51.076;17.046;2022-07-06T08:10:55;9.70;;;3.90;;
31716;SDS011;18301;51.076;17.046;2022-07-06T08:16:17;5.90;;;3.33;;
31716;SDS011;18301;51.076;17.046;2022-07-06T08:21:18;4.55;;;3.38;;
31716;SDS011;18301;51.076;17.046;2022-07-06T08:26:26;3.17;;;2.47;;
31716;SDS011;18301;51.076;17.046;2022-07-06T08:31:27;3.55;;;2.90;;
31716;SDS011;18301;51.076;17.046;2022-07-06T08:36:49;3.13;;;2.80;;
31716;SDS011;18301;51.076;17.046;2022-07-06T08:41:51;3.10;;;2.80;;
31716;SDS011;18301;51.076;17.046;2022-07-06T08:46:52;5.60;;;2.92;;
31716;SDS011;18301;51.076;17.046;2022-07-06T08:51:56;4.00;;;2.80;;
31716;SDS011;18301;51.076;17.046;2022-07-06T08:56:58;4.22;;;2.65;;
31716;SDS011;18301;51.076;17.046;2022-07-06T09:02:00;5.35;;;3.20;;
31716;SDS011;18301;51.076;17.046;2022-07-06T09:07:04;5.57;;;2.88;;
31716;SDS011;18301;51.076;17.046;2022-07-06T09:12:09;6.63;;;3.15;;
31716;SDS011;18301;51.076;17.046;2022-07-06T09:17:13;3.28;;;2.50;;
31716;SDS011;18301;51.076;17.046;2022-07-06T09:22:30;3.15;;;2.67;;
31716;SDS011;18301;51.076;17.046;2022-07-06T09:27:39;4.10;;;2.80;;
31716;SDS011;18301;51.076;17.046;2022-07-06T09:32:44;5.20;;;3.30;;
31716;SDS011;18301;51.076;17.046;2022-07-06T09:37:51;5.30;;;3.50;;
31716;SDS011;18301;51.076;17.046;2022-07-06T09:48:14;5.75;;;2.88;;
31716;SDS011;18301;51.076;17.046;2022-07-06T09:53:20;4.05;;;3.20;;
31716;SDS011;18301;51.076;17.046;2022-07-06T09:58:23;3.65;;;3.33;;
31716;SDS011;18301;51.076;17.046;2022-07-06T10:03:45;4.13;;;2.80;;
31716;SDS011;18301;51.076;17.046;2022-07-06T10:08:46;4.55;;;2.67;;
31716;SDS011;18301;51.076;17.046;2022-07-06T10:13:48;4.07;;;2.63;;
31716;SDS011;18301;51.076;17.046;2022-07-06T10:18:55;4.30;;;2.30;;
31716;SDS011;18301;51.076;17.046;2022-07-06T10:23:58;3.10;;;2.20;;
31716;SDS011;18301;51.076;17.046;2022-07-06T10:29:01;3.28;;;2.20;;
31716;SDS011;18301;51.076;17.046;2022-07-06T10:34:06;2.63;;;2.10;;
31716;SDS011;18301;51.076;17.046;2022-07-06T10:39:10;2.90;;;2.22;;
31716;SDS011;18301;51.076;17.046;2022-07-06T10:44:31;5.38;;;2.30;;
31716;SDS011;18301;51.076;17.046;2022-07-06T10:49:32;4.03;;;2.40;;
31716;SDS011;18301;51.076;17.046;2022-07-06T10:55:00;4.47;;;2.20;;
31716;SDS011;18301;51.076;17.046;2022-07-06T11:00:03;4.20;;;2.13;;
31716;SDS011;18301;51.076;17.046;2022-07-06T11:05:10;2.80;;;2.17;;
31716;SDS011;18301;51.076;17.046;2022-07-06T11:10:12;2.55;;;2.30;;
31716;SDS011;18301;51.076;17.046;2022-07-06T11:15:43;4.15;;;2.60;;
31716;SDS011;18301;51.076;17.046;2022-07-06T11:26:24;3.28;;;2.28;;
31716;SDS011;18301;51.076;17.046;2022-07-06T11:31:25;3.72;;;2.28;;
31716;SDS011;18301;51.076;17.046;2022-07-06T11:36:27;4.85;;;2.50;;
31716;SDS011;18301;51.076;17.046;2022-07-06T11:41:35;2.00;;;1.90;;
31716;SDS011;18301;51.076;17.046;2022-07-06T11:46:38;4.15;;;2.35;;
31716;SDS011;18301;51.076;17.046;2022-07-06T11:51:40;2.90;;;2.22;;
31716;SDS011;18301;51.076;17.046;2022-07-06T11:56:53;4.13;;;2.17;;
31716;SDS011;18301;51.076;17.046;2022-07-06T12:02:02;3.67;;;2.10;;
31716;SDS011;18301;51.076;17.046;2022-07-06T12:07:15;4.13;;;2.17;;
31716;SDS011;18301;51.076;17.046;2022-07-06T12:12:17;3.88;;;2.28;;
31716;SDS011;18301;51.076;17.046;2022-07-06T12:17:19;2.75;;;2.38;;
31716;SDS011;18301;51.076;17.046;2022-07-06T12:22:25;5.45;;;1.90;;
31716;SDS011;18301;51.076;17.046;2022-07-06T12:27:27;3.72;;;2.00;;
31716;SDS011;18301;51.076;17.046;2022-07-06T12:32:28;2.25;;;2.00;;
31716;SDS011;18301;51.076;17.046;2022-07-06T12:37:30;2.35;;;1.63;;
31716;SDS011;18301;51.076;17.046;2022-07-06T12:42:31;2.05;;;1.30;;
31716;SDS011;18301;51.076;17.046;2022-07-06T12:47:33;3.95;;;1.33;;
31716;SDS011;18301;51.076;17.046;2022-07-06T12:52:35;6.22;;;1.83;;
31716;SDS011;18301;51.076;17.046;2022-07-06T12:57:45;3.53;;;1.33;;
31716;SDS011;18301;51.076;17.046;2022-07-06T13:02:49;3.20;;;1.50;;
31716;SDS011;18301;51.076;17.046;2022-07-06T13:08:11;2.00;;;1.40;;
31716;SDS011;18301;51.076;17.046;2022-07-06T13:13:12;3.38;;;1.50;;
31716;SDS011;18301;51.076;17.046;2022-07-06T13:18:14;2.22;;;1.23;;
31716;SDS011;18301;51.076;17.046;2022-07-06T13:23:15;1.75;;;1.33;;
31716;SDS011;18301;51.076;17.046;2022-07-06T13:28:17;4.78;;;1.50;;
31716;SDS011;18301;51.076;17.046;2022-07-06T13:33:18;2.17;;;1.35;;
31716;SDS011;18301;51.076;17.046;2022-07-06T13:38:20;2.83;;;1.45;;
31716;SDS011;18301;51.076;17.046;2022-07-06T13:43:21;3.10;;;1.75;;
31716;SDS011;18301;51.076;17.046;2022-07-06T13:48:24;1.90;;;1.40;;
31716;SDS011;18301;51.076;17.046;2022-07-06T13:53:26;1.73;;;1.40;;
31716;SDS011;18301;51.076;17.046;2022-07-06T13:58:28;2.60;;;1.20;;
31716;SDS011;18301;51.076;17.046;2022-07-06T14:03:30;1.70;;;1.50;;
31716;SDS011;18301;51.076;17.046;2022-07-06T14:08:32;2.00;;;1.60;;
31716;SDS011;18301;51.076;17.046;2022-07-06T14:13:35;1.77;;;1.33;;
31716;SDS011;18301;51.076;17.046;2022-07-06T14:18:37;3.88;;;1.80;;
31716;SDS011;18301;51.076;17.046;2022-07-06T14:23:39;4.95;;;2.08;;
31716;SDS011;18301;51.076;17.046;2022-07-06T14:28:40;2.15;;;1.45;;
31716;SDS011;18301;51.076;17.046;2022-07-06T14:33:42;2.22;;;1.70;;
31716;SDS011;18301;51.076;17.046;2022-07-06T14:38:43;3.55;;;1.77;;
31716;SDS011;18301;51.076;17.046;2022-07-06T14:43:45;2.88;;;1.80;;
31716;SDS011;18301;51.076;17.046;2022-07-06T14:48:47;5.57;;;2.05;;
31716;SDS011;18301;51.076;17.046;2022-07-06T14:53:48;2.17;;;1.92;;
31716;SDS011;18301;51.076;17.046;2022-07-06T14:58:50;3.10;;;2.10;;
31716;SDS011;18301;51.076;17.046;2022-07-06T15:04:11;3.33;;;2.25;;
31716;SDS011;18301;51.076;17.046;2022-07-06T15:09:13;2.83;;;2.25;;
31716;SDS011;18301;51.076;17.046;2022-07-06T15:14:14;3.78;;;2.55;;
31716;SDS011;18301;51.076;17.046;2022-07-06T15:19:18;5.35;;;2.70;;
31716;SDS011;18301;51.076;17.046;2022-07-06T15:24:20;3.72;;;2.28;;
31716;SDS011;18301;51.076;17.046;2022-07-06T15:29:22;4.35;;;2.30;;
31716;SDS011;18301;51.076;17.046;2022-07-06T15:34:23;2.95;;;1.88;;
31716;SDS011;18301;51.076;17.046;2022-07-06T15:39:25;4.97;;;1.58;;
31716;SDS011;18301;51.076;17.046;2022-07-06T15:44:26;4.60;;;1.65;;
31716;SDS011;18301;51.076;17.046;2022-07-06T15:49:28;3.20;;;1.45;;
31716;SDS011;18301;51.076;17.046;2022-07-06T15:54:30;1.95;;;1.55;;
31716;SDS011;18301;51.076;17.046;2022-07-06T15:59:31;5.28;;;1.80;;
31716;SDS011;18301;51.076;17.046;2022-07-06T16:04:33;2.42;;;1.67;;
31716;SDS011;18301;51.076;17.046;2022-07-06T16:09:34;4.00;;;1.58;;
31716;SDS011;18301;51.076;17.046;2022-07-06T16:14:36;2.50;;;1.48;;
31716;SDS011;18301;51.076;17.046;2022-07-06T16:19:37;3.78;;;1.30;;
31716;SDS011;18301;51.076;17.046;2022-07-06T16:24:39;2.45;;;1.20;;
31716;SDS011;18301;51.076;17.046;2022-07-06T16:29:41;2.75;;;1.52;;
31716;SDS011;18301;51.076;17.046;2022-07-06T16:34:42;2.95;;;1.30;;
31716;SDS011;18301;51.076;17.046;2022-07-06T16:39:43;2.70;;;1.52;;
31716;SDS011;18301;51.076;17.046;2022-07-06T16:44:45;2.10;;;1.40;;
31716;SDS011;18301;51.076;17.046;2022-07-06T16:49:47;4.00;;;1.30;;
31716;SDS011;18301;51.076;17.046;2022-07-06T16:54:49;3.08;;;1.50;;
31716;SDS011;18301;51.076;17.046;2022-07-06T16:59:51;4.25;;;1.50;;
31716;SDS011;18301;51.076;17.046;2022-07-06T17:04:52;1.38;;;1.23;;
31716;SDS011;18301;51.076;17.046;2022-07-06T17:09:54;2.38;;;1.38;;
31716;SDS011;18301;51.076;17.046;2022-07-06T17:14:55;2.45;;;1.60;;
31716;SDS011;18301;51.076;17.046;2022-07-06T17:19:57;3.00;;;1.40;;
31716;SDS011;18301;51.076;17.046;2022-07-06T17:24:58;2.95;;;1.40;;
31716;SDS011;18301;51.076;17.046;2022-07-06T17:30:00;4.35;;;1.63;;
31716;SDS011;18301;51.076;17.046;2022-07-06T17:35:02;1.42;;;1.20;;
31716;SDS011;18301;51.076;17.046;2022-07-06T17:40:03;2.67;;;1.73;;
31716;SDS011;18301;51.076;17.046;2022-07-06T17:45:06;2.78;;;1.63;;
31716;SDS011;18301;51.076;17.046;2022-07-06T17:50:07;2.20;;;1.42;;
31716;SDS011;18301;51.076;17.046;2022-07-06T17:55:09;5.28;;;1.50;;
31716;SDS011;18301;51.076;17.046;2022-07-06T18:00:11;1.90;;;1.50;;
31716;SDS011;18301;51.076;17.046;2022-07-06T18:05:13;3.85;;;1.95;;
31716;SDS011;18301;51.076;17.046;2022-07-06T18:10:17;5.03;;;1.67;;
31716;SDS011;18301;51.076;17.046;2022-07-06T18:15:20;2.75;;;1.60;;
31716;SDS011;18301;51.076;17.046;2022-07-06T18:20:21;3.30;;;1.50;;
31716;SDS011;18301;51.076;17.046;2022-07-06T18:25:23;3.67;;;1.55;;
31716;SDS011;18301;51.076;17.046;2022-07-06T18:30:25;3.20;;;1.80;;
31716;SDS011;18301;51.076;17.046;2022-07-06T18:35:27;2.53;;;1.52;;
31716;SDS011;18301;51.076;17.046;2022-07-06T18:40:28;5.20;;;1.70;;
31716;SDS011;18301;51.076;17.046;2022-07-06T18:45:30;1.67;;;1.23;;
31716;SDS011;18301;51.076;17.046;2022-07-06T18:50:32;3.70;;;1.15;;
31716;SDS011;18301;51.076;17.046;2022-07-06T18:55:34;3.28;;;1.73;;
31716;SDS011;18301;51.076;17.046;2022-07-06T19:00:36;3.55;;;1.75;;
31716;SDS011;18301;51.076;17.046;2022-07-06T19:05:38;4.35;;;1.75;;
31716;SDS011;18301;51.076;17.046;2022-07-06T19:10:40;3.47;;;1.40;;
31716;SDS011;18301;51.076;17.046;2022-07-06T19:15:41;4.97;;;1.80;;
31716;SDS011;18301;51.076;17.046;2022-07-06T19:20:43;3.08;;;1.50;;
31716;SDS011;18301;51.076;17.046;2022-07-06T19:25:46;3.22;;;1.60;;
31716;SDS011;18301;51.076;17.046;2022-07-06T19:30:47;3.22;;;1.70;;
31716;SDS011;18301;51.076;17.046;2022-07-06T19:35:49;2.97;;;1.48;;
31716;SDS011;18301;51.076;17.046;2022-07-06T19:40:51;2.55;;;1.33;;
31716;SDS011;18301;51.076;17.046;2022-07-06T19:45:53;3.08;;;1.40;;
31716;SDS011;18301;51.076;17.046;2022-07-06T19:50:54;4.05;;;1.70;;
31716;SDS011;18301;51.076;17.046;2022-07-06T19:55:57;5.18;;;1.60;;
31716;SDS011;18301;51.076;17.046;2022-07-06T20:00:59;3.53;;;1.50;;
31716;SDS011;18301;51.076;17.046;2022-07-06T20:06:01;3.30;;;1.98;;
31716;SDS011;18301;51.076;17.046;2022-07-06T20:11:02;3.38;;;1.60;;
31716;SDS011;18301;51.076;17.046;2022-07-06T20:16:04;3.28;;;1.50;;
31716;SDS011;18301;51.076;17.046;2022-07-06T20:21:06;3.30;;;1.50;;
31716;SDS011;18301;51.076;17.046;2022-07-06T20:26:08;3.92;;;1.45;;
31716;SDS011;18301;51.076;17.046;2022-07-06T20:31:10;3.13;;;1.60;;
31716;SDS011;18301;51.076;17.046;2022-07-06T20:36:11;6.25;;;1.70;;
31716;SDS011;18301;51.076;17.046;2022-07-06T20:41:13;2.55;;;1.80;;
31716;SDS011;18301;51.076;17.046;2022-07-06T20:46:14;3.58;;;1.80;;
31716;SDS011;18301;51.076;17.046;2022-07-06T20:51:16;4.45;;;1.92;;
31716;SDS011;18301;51.076;17.046;2022-07-06T20:56:18;3.67;;;1.85;;
31716;SDS011;18301;51.076;17.046;2022-07-06T21:01:19;3.40;;;1.90;;
31716;SDS011;18301;51.076;17.046;2022-07-06T21:06:21;3.63;;;1.80;;
31716;SDS011;18301;51.076;17.046;2022-07-06T21:11:22;4.13;;;2.70;;
31716;SDS011;18301;51.076;17.046;2022-07-06T21:16:24;4.55;;;2.45;;
31716;SDS011;18301;51.076;17.046;2022-07-06T21:21:26;6.68;;;3.15;;
31716;SDS011;18301;51.076;17.046;2022-07-06T21:26:27;5.15;;;2.80;;
31716;SDS011;18301;51.076;17.046;2022-07-06T21:31:29;5.30;;;2.83;;
31716;SDS011;18301;51.076;17.046;2022-07-06T21:36:30;4.28;;;2.40;;
31716;SDS011;18301;51.076;17.046;2022-07-06T21:41:32;5.43;;;2.53;;
31716;SDS011;18301;51.076;17.046;2022-07-06T21:46:33;4.45;;;2.40;;
31716;SDS011;18301;51.076;17.046;2022-07-06T21:51:40;3.33;;;2.35;;
31716;SDS011;18301;51.076;17.046;2022-07-06T21:56:41;4.22;;;2.65;;
31716;SDS011;18301;51.076;17.046;2022-07-06T22:01:43;7.63;;;2.40;;
31716;SDS011;18301;51.076;17.046;2022-07-06T22:06:44;3.33;;;2.22;;
31716;SDS011;18301;51.076;17.046;2022-07-06T22:11:46;5.90;;;2.60;;
31716;SDS011;18301;51.076;17.046;2022-07-06T22:16:48;4.97;;;2.40;;
31716;SDS011;18301;51.076;17.046;2022-07-06T22:21:49;6.15;;;2.83;;
31716;SDS011;18301;51.076;17.046;2022-07-06T22:26:51;5.15;;;2.92;;
31716;SDS011;18301;51.076;17.046;2022-07-06T22:31:52;5.55;;;2.75;;
31716;SDS011;18301;51.076;17.046;2022-07-06T22:36:54;5.32;;;2.72;;
31716;SDS011;18301;51.076;17.046;2022-07-06T22:41:56;4.50;;;2.75;;
31716;SDS011;18301;51.076;17.046;2022-07-06T22:46:57;5.43;;;2.80;;
31716;SDS011;18301;51.076;17.046;2022-07-06T22:51:59;7.28;;;2.85;;
31716;SDS011;18301;51.076;17.046;2022-07-06T22:57:00;4.43;;;2.78;;
31716;SDS011;18301;51.076;17.046;2022-07-06T23:02:02;5.55;;;2.90;;
31716;SDS011;18301;51.076;17.046;2022-07-06T23:07:03;5.45;;;3.10;;
31716;SDS011;18301;51.076;17.046;2022-07-06T23:12:05;6.85;;;2.92;;
31716;SDS011;18301;51.076;17.046;2022-07-06T23:17:07;5.38;;;2.90;;
31716;SDS011;18301;51.076;17.046;2022-07-06T23:22:08;7.07;;;3.30;;
31716;SDS011;18301;51.076;17.046;2022-07-06T23:27:10;7.45;;;3.10;;
31716;SDS011;18301;51.076;17.046;2022-07-06T23:32:11;4.95;;;3.05;;
31716;SDS011;18301;51.076;17.046;2022-07-06T23:37:13;5.22;;;3.20;;
31716;SDS011;18301;51.076;17.046;2022-07-06T23:42:14;5.53;;;3.10;;
31716;SDS011;18301;51.076;17.046;2022-07-06T23:47:16;5.32;;;3.00;;
31716;SDS011;18301;51.076;17.046;2022-07-06T23:52:17;5.40;;;3.15;;
31716;SDS011;18301;51.076;17.046;2022-07-06T23:57:19;6.80;;;3.25;;
